sensor_id;sensor_type;location;lat;lon;timestamp;pressure;altitude;pressure_sealevel;temperature;humidity
78741;BME280;68062;48.726;9.370;2023-04-01T00:01:27;97437.56;;;7.56;100.00
78741;BME280;68062;48.726;9.370;2023-04-01T00:03:54;97434.06;;;7.61;100.00
78741;BME280;68062;48.726;9.370;2023-04-01T00:06:21;97395.97;;;7.38;99.99
78741;BME280;68062;48.726;9.370;2023-04-01T00:08:48;97434.91;;;7.65;100.00
78741;BME280;68062;48.726;9.370;2023-04-01T00:11:16;97428.03;;;7.70;99.55
78741;BME280;68062;48.726;9.370;2023-04-01T00:13:43;97426.22;;;7.78;99.54
78741;BME280;68062;48.726;9.370;2023-04-01T00:16:11;97431.38;;;7.74;98.89
78741;BME280;68062;48.726;9.370;2023-04-01T00:18:38;97427.84;;;7.84;98.48
78741;BME280;68062;48.726;9.370;2023-04-01T00:21:05;97421.03;;;7.85;99.31
78741;BME280;68062;48.726;9.370;2023-04-01T00:23:32;97439.91;;;7.73;100.00
78741;BME280;68062;48.726;9.370;2023-04-01T00:25:59;97413.31;;;7.86;99.09
78741;BME280;68062;48.726;9.370;2023-04-01T00:28:26;97424.44;;;7.84;99.74
78741;BME280;68062;48.726;9.370;2023-04-01T00:30:53;97415.81;;;7.89;98.22
78741;BME280;68062;48.726;9.370;2023-04-01T00:33:21;97415.88;;;7.86;98.66
78741;BME280;68062;48.726;9.370;2023-04-01T00:35:48;97426.25;;;7.74;100.00
78741;BME280;68062;48.726;9.370;2023-04-01T00:38:15;97425.53;;;7.62;100.00
78741;BME280;68062;48.726;9.370;2023-04-01T00:40:43;97423.75;;;7.69;100.00
78741;BME280;68062;48.726;9.370;2023-04-01T00:43:13;97425.56;;;7.59;100.00
78741;BME280;68062;48.726;9.370;2023-04-01T00:45:42;97440.03;;;7.65;100.00
78741;BME280;68062;48.726;9.370;2023-04-01T00:48:11;97434.81;;;7.71;100.00
78741;BME280;68062;48.726;9.370;2023-04-01T00:50:46;97433.03;;;7.79;99.30
78741;BME280;68062;48.726;9.370;2023-04-01T00:53:17;97435.56;;;7.83;100.00
78741;BME280;68062;48.726;9.370;2023-04-01T00:55:50;97436.38;;;7.83;99.86
78741;BME280;68062;48.726;9.370;2023-04-01T00:58:21;97438.06;;;7.84;100.00
78741;BME280;68062;48.726;9.370;2023-04-01T01:00:50;97453.25;;;7.98;98.83
78741;BME280;68062;48.726;9.370;2023-04-01T01:03:18;97444.72;;;7.99;99.34
78741;BME280;68062;48.726;9.370;2023-04-01T01:06:09;97398.06;;;7.77;97.56
78741;BME280;68062;48.726;9.370;2023-04-01T01:08:49;97421.75;;;7.94;96.82
78741;BME280;68062;48.726;9.370;2023-04-01T01:11:21;97430.09;;;8.09;96.77
78741;BME280;68062;48.726;9.370;2023-04-01T01:13:55;97436.28;;;7.92;99.61
78741;BME280;68062;48.726;9.370;2023-04-01T01:16:27;97433.63;;;7.99;99.37
78741;BME280;68062;48.726;9.370;2023-04-01T01:18:59;97433.81;;;7.83;100.00
78741;BME280;68062;48.726;9.370;2023-04-01T01:21:49;97433.94;;;7.75;100.00
78741;BME280;68062;48.726;9.370;2023-04-01T01:24:43;97446.00;;;7.62;100.00
78741;BME280;68062;48.726;9.370;2023-04-01T01:27:17;97440.06;;;7.62;100.00
78741;BME280;68062;48.726;9.370;2023-04-01T01:29:59;97440.09;;;7.59;100.00
78741;BME280;68062;48.726;9.370;2023-04-01T01:33:02;97440.03;;;7.63;100.00
78741;BME280;68062;48.726;9.370;2023-04-01T01:35:37;97431.59;;;7.55;100.00
78741;BME280;68062;48.726;9.370;2023-04-01T01:38:15;97438.41;;;7.58;100.00
78741;BME280;68062;48.726;9.370;2023-04-01T01:40:50;97440.16;;;7.53;100.00
78741;BME280;68062;48.726;9.370;2023-04-01T01:43:24;97434.94;;;7.60;100.00
78741;BME280;68062;48.726;9.370;2023-04-01T01:45:54;97432.44;;;7.56;100.00
78741;BME280;68062;48.726;9.370;2023-04-01T01:48:23;97435.00;;;7.54;100.00
78741;BME280;68062;48.726;9.370;2023-04-01T01:50:52;97442.72;;;7.51;100.00
78741;BME280;68062;48.726;9.370;2023-04-01T01:53:20;97439.28;;;7.54;100.00
78741;BME280;68062;48.726;9.370;2023-04-01T01:55:47;97433.31;;;7.53;100.00
78741;BME280;68062;48.726;9.370;2023-04-01T01:58:17;97438.53;;;7.45;100.00
78741;BME280;68062;48.726;9.370;2023-04-01T02:00:50;97427.38;;;7.51;100.00
78741;BME280;68062;48.726;9.370;2023-04-01T02:03:20;97397.94;;;7.11;100.00
78741;BME280;68062;48.726;9.370;2023-04-01T02:05:48;97444.59;;;7.35;100.00
78741;BME280;68062;48.726;9.370;2023-04-01T02:08:21;97432.59;;;7.39;100.00
78741;BME280;68062;48.726;9.370;2023-04-01T02:10:55;97440.25;;;7.43;100.00
78741;BME280;68062;48.726;9.370;2023-04-01T02:13:27;97439.44;;;7.36;100.00
78741;BME280;68062;48.726;9.370;2023-04-01T02:16:00;97449.69;;;7.36;100.00
78741;BME280;68062;48.726;9.370;2023-04-01T02:18:33;97428.56;;;7.17;100.00
78741;BME280;68062;48.726;9.370;2023-04-01T02:21:02;97448.88;;;7.33;100.00
78741;BME280;68062;48.726;9.370;2023-04-01T02:23:33;97431.75;;;7.41;100.00
78741;BME280;68062;48.726;9.370;2023-04-01T02:26:01;97452.19;;;7.44;100.00
78741;BME280;68062;48.726;9.370;2023-04-01T02:28:29;97427.56;;;7.34;100.00
78741;BME280;68062;48.726;9.370;2023-04-01T02:30:59;97441.09;;;7.44;99.35
78741;BME280;68062;48.726;9.370;2023-04-01T02:33:28;97447.09;;;7.40;97.41
78741;BME280;68062;48.726;9.370;2023-04-01T02:35:55;97446.25;;;7.38;98.85
78741;BME280;68062;48.726;9.370;2023-04-01T02:38:22;97450.50;;;7.39;99.28
78741;BME280;68062;48.726;9.370;2023-04-01T02:40:52;97456.44;;;7.45;97.99
78741;BME280;68062;48.726;9.370;2023-04-01T02:43:23;97438.56;;;7.41;99.53
78741;BME280;68062;48.726;9.370;2023-04-01T02:45:50;97454.72;;;7.44;98.76
78741;BME280;68062;48.726;9.370;2023-04-01T02:48:17;97447.97;;;7.37;100.00
78741;BME280;68062;48.726;9.370;2023-04-01T02:50:43;97436.09;;;7.31;100.00
78741;BME280;68062;48.726;9.370;2023-04-01T02:53:10;97441.19;;;7.34;100.00
78741;BME280;68062;48.726;9.370;2023-04-01T02:55:37;97436.09;;;7.33;99.05
78741;BME280;68062;48.726;9.370;2023-04-01T02:58:05;97450.59;;;7.29;98.60
78741;BME280;68062;48.726;9.370;2023-04-01T03:00:32;97438.75;;;7.24;99.56
78741;BME280;68062;48.726;9.370;2023-04-01T03:02:58;97441.28;;;7.24;98.46
78741;BME280;68062;48.726;9.370;2023-04-01T03:05:25;97439.69;;;7.12;100.00
78741;BME280;68062;48.726;9.370;2023-04-01T03:07:52;97437.09;;;7.15;99.95
78741;BME280;68062;48.726;9.370;2023-04-01T03:10:19;97438.91;;;7.03;99.53
78741;BME280;68062;48.726;9.370;2023-04-01T03:12:46;97438.84;;;7.11;98.15
78741;BME280;68062;48.726;9.370;2023-04-01T03:15:14;97428.59;;;7.13;98.16
78741;BME280;68062;48.726;9.370;2023-04-01T03:17:42;97430.47;;;6.95;99.56
78741;BME280;68062;48.726;9.370;2023-04-01T03:20:10;97439.84;;;6.95;99.53
78741;BME280;68062;48.726;9.370;2023-04-01T03:22:37;97433.94;;;6.85;100.00
78741;BME280;68062;48.726;9.370;2023-04-01T03:25:05;97446.78;;;6.80;99.69
78741;BME280;68062;48.726;9.370;2023-04-01T03:27:32;97444.16;;;6.85;100.00
78741;BME280;68062;48.726;9.370;2023-04-01T03:29:59;97441.63;;;6.82;100.00
78741;BME280;68062;48.726;9.370;2023-04-01T03:32:28;97446.81;;;6.77;100.00
78741;BME280;68062;48.726;9.370;2023-04-01T03:34:54;97452.75;;;6.79;100.00
78741;BME280;68062;48.726;9.370;2023-04-01T03:37:22;97454.41;;;6.86;99.53
78741;BME280;68062;48.726;9.370;2023-04-01T03:39:49;97455.28;;;6.81;100.00
78741;BME280;68062;48.726;9.370;2023-04-01T03:42:16;97451.03;;;6.81;100.00
78741;BME280;68062;48.726;9.370;2023-04-01T03:44:43;97444.13;;;6.92;99.70
78741;BME280;68062;48.726;9.370;2023-04-01T03:47:10;97447.53;;;6.91;99.54
78741;BME280;68062;48.726;9.370;2023-04-01T03:49:39;97451.88;;;6.83;100.00
78741;BME280;68062;48.726;9.370;2023-04-01T03:52:09;97457.78;;;6.88;99.90
78741;BME280;68062;48.726;9.370;2023-04-01T03:54:35;97450.03;;;6.96;98.69
78741;BME280;68062;48.726;9.370;2023-04-01T03:57:02;97457.72;;;6.98;97.86
78741;BME280;68062;48.726;9.370;2023-04-01T03:59:29;97445.88;;;6.87;98.11
78741;BME280;68062;48.726;9.370;2023-04-01T04:01:56;97427.16;;;6.81;97.85
78741;BME280;68062;48.726;9.370;2023-04-01T04:04:22;97422.09;;;6.77;97.72
78741;BME280;68062;48.726;9.370;2023-04-01T04:06:51;97441.66;;;6.78;98.44
78741;BME280;68062;48.726;9.370;2023-04-01T04:09:19;97425.72;;;6.52;99.60
78741;BME280;68062;48.726;9.370;2023-04-01T04:11:46;97428.25;;;6.52;100.00
78741;BME280;68062;48.726;9.370;2023-04-01T04:14:13;97431.53;;;6.68;98.12
78741;BME280;68062;48.726;9.370;2023-04-01T04:16:39;97426.50;;;6.60;97.75
78741;BME280;68062;48.726;9.370;2023-04-01T04:19:07;97430.78;;;6.58;97.18
78741;BME280;68062;48.726;9.370;2023-04-01T04:21:33;97437.59;;;6.59;96.94
78741;BME280;68062;48.726;9.370;2023-04-01T04:24:03;97443.53;;;6.61;97.21
78741;BME280;68062;48.726;9.370;2023-04-01T04:26:49;97440.06;;;6.67;96.34
78741;BME280;68062;48.726;9.370;2023-04-01T04:29:16;97433.31;;;6.59;97.32
78741;BME280;68062;48.726;9.370;2023-04-01T04:31:43;97427.28;;;6.67;97.35
78741;BME280;68062;48.726;9.370;2023-04-01T04:34:09;97438.41;;;6.59;97.68
78741;BME280;68062;48.726;9.370;2023-04-01T04:36:36;97418.03;;;6.55;98.49
78741;BME280;68062;48.726;9.370;2023-04-01T04:39:04;97430.09;;;6.34;99.85
78741;BME280;68062;48.726;9.370;2023-04-01T04:41:33;97424.06;;;6.44;99.40
78741;BME280;68062;48.726;9.370;2023-04-01T04:43:59;97425.81;;;6.36;99.37
78741;BME280;68062;48.726;9.370;2023-04-01T04:46:26;97425.84;;;6.33;100.00
78741;BME280;68062;48.726;9.370;2023-04-01T04:49:00;97429.22;;;6.33;100.00
78741;BME280;68062;48.726;9.370;2023-04-01T04:51:27;97432.66;;;6.29;100.00
78741;BME280;68062;48.726;9.370;2023-04-01T04:53:53;97419.06;;;6.21;100.00
78741;BME280;68062;48.726;9.370;2023-04-01T04:56:30;97408.88;;;6.23;100.00
78741;BME280;68062;48.726;9.370;2023-04-01T04:59:05;97424.16;;;6.29;100.00
78741;BME280;68062;48.726;9.370;2023-04-01T05:01:41;97407.97;;;6.33;100.00
78741;BME280;68062;48.726;9.370;2023-04-01T05:04:08;97419.81;;;6.39;100.00
78741;BME280;68062;48.726;9.370;2023-04-01T05:06:34;97422.31;;;6.50;99.14
78741;BME280;68062;48.726;9.370;2023-04-01T05:09:02;97419.81;;;6.43;100.00
78741;BME280;68062;48.726;9.370;2023-04-01T05:11:28;97422.31;;;6.48;100.00
78741;BME280;68062;48.726;9.370;2023-04-01T05:13:57;97431.63;;;6.60;99.17
78741;BME280;68062;48.726;9.370;2023-04-01T05:16:24;97429.00;;;6.68;98.55
78741;BME280;68062;48.726;9.370;2023-04-01T05:18:53;97434.88;;;6.74;99.02
78741;BME280;68062;48.726;9.370;2023-04-01T05:21:20;97422.97;;;6.75;99.42
78741;BME280;68062;48.726;9.370;2023-04-01T05:23:47;97418.69;;;6.77;100.00
78741;BME280;68062;48.726;9.370;2023-04-01T05:26:14;97411.84;;;6.82;99.25
78741;BME280;68062;48.726;9.370;2023-04-01T05:28:42;97407.56;;;6.84;98.70
78741;BME280;68062;48.726;9.370;2023-04-01T05:31:10;97407.47;;;6.92;97.64
78741;BME280;68062;48.726;9.370;2023-04-01T05:33:38;97410.94;;;6.86;98.94
78741;BME280;68062;48.726;9.370;2023-04-01T05:36:06;97413.44;;;6.91;98.66
78741;BME280;68062;48.726;9.370;2023-04-01T05:38:33;97353.16;;;6.71;98.38
78741;BME280;68062;48.726;9.370;2023-04-01T05:41:00;97403.03;;;7.13;96.87
78741;BME280;68062;48.726;9.370;2023-04-01T05:43:31;97409.75;;;7.23;94.76
78741;BME280;68062;48.726;9.370;2023-04-01T05:46:09;97432.75;;;7.23;94.47
78741;BME280;68062;48.726;9.370;2023-04-01T05:48:44;97407.09;;;7.32;93.94
78741;BME280;68062;48.726;9.370;2023-04-01T05:51:12;97407.97;;;7.31;94.64
78741;BME280;68062;48.726;9.370;2023-04-01T05:53:39;97390.00;;;7.38;92.94
78741;BME280;68062;48.726;9.370;2023-04-01T05:56:07;97406.09;;;7.46;93.60
78741;BME280;68062;48.726;9.370;2023-04-01T05:58:41;97394.06;;;7.56;92.00
78741;BME280;68062;48.726;9.370;2023-04-01T06:01:12;97407.69;;;7.58;93.14
78741;BME280;68062;48.726;9.370;2023-04-01T06:03:39;97405.00;;;7.70;92.14
78741;BME280;68062;48.726;9.370;2023-04-01T06:06:13;97401.44;;;7.80;89.52
78741;BME280;68062;48.726;9.370;2023-04-01T06:08:41;97409.81;;;7.95;89.97
78741;BME280;68062;48.726;9.370;2023-04-01T06:11:17;97402.91;;;7.97;89.48
78741;BME280;68062;48.726;9.370;2023-04-01T06:14:02;97402.00;;;8.03;88.00
78741;BME280;68062;48.726;9.370;2023-04-01T06:16:42;97408.97;;;7.91;88.40
78741;BME280;68062;48.726;9.370;2023-04-01T06:19:29;97404.41;;;8.15;88.06
78741;BME280;68062;48.726;9.370;2023-04-01T06:22:12;97396.72;;;8.15;86.97
78741;BME280;68062;48.726;9.370;2023-04-01T06:24:57;97392.34;;;8.23;86.24
78741;BME280;68062;48.726;9.370;2023-04-01T06:27:45;97396.50;;;8.29;85.88
78741;BME280;68062;48.726;9.370;2023-04-01T06:30:38;97392.06;;;8.40;85.86
78741;BME280;68062;48.726;9.370;2023-04-01T06:36:15;97379.03;;;9.08;81.93
78741;BME280;68062;48.726;9.370;2023-04-01T06:42:13;97390.34;;;8.97;80.46
78741;BME280;68062;48.726;9.370;2023-04-01T06:44:53;97392.84;;;9.01;81.92
78741;BME280;68062;48.726;9.370;2023-04-01T06:47:52;97398.03;;;8.97;81.09
78741;BME280;68062;48.726;9.370;2023-04-01T06:51:11;97390.00;;;9.18;79.78
78741;BME280;68062;48.726;9.370;2023-04-01T06:54:03;97397.31;;;8.89;81.71
78741;BME280;68062;48.726;9.370;2023-04-01T06:56:52;97352.72;;;8.46;82.96
78741;BME280;68062;48.726;9.370;2023-04-01T06:59:25;97383.09;;;8.71;82.70
78741;BME280;68062;48.726;9.370;2023-04-01T07:01:57;97390.69;;;8.76;81.87
78741;BME280;68062;48.726;9.370;2023-04-01T07:04:29;97344.84;;;8.59;81.47
78741;BME280;68062;48.726;9.370;2023-04-01T07:07:00;97387.09;;;8.86;81.23
78741;BME280;68062;48.726;9.370;2023-04-01T07:09:33;97382.75;;;8.91;81.65
78741;BME280;68062;48.726;9.370;2023-04-01T07:12:26;97396.50;;;8.87;81.97
78741;BME280;68062;48.726;9.370;2023-04-01T07:15:18;97380.19;;;8.93;81.51
78741;BME280;68062;48.726;9.370;2023-04-01T07:17:49;97374.19;;;8.94;82.23
78741;BME280;68062;48.726;9.370;2023-04-01T07:20:22;97381.31;;;9.23;81.19
78741;BME280;68062;48.726;9.370;2023-04-01T07:22:56;97336.53;;;8.96;81.73
78741;BME280;68062;48.726;9.370;2023-04-01T07:25:35;97387.03;;;9.38;81.28
78741;BME280;68062;48.726;9.370;2023-04-01T07:28:42;97390.44;;;9.38;80.67
78741;BME280;68062;48.726;9.370;2023-04-01T07:31:38;97380.56;;;9.20;79.51
78741;BME280;68062;48.726;9.370;2023-04-01T07:34:10;97362.22;;;8.93;80.74
78741;BME280;68062;48.726;9.370;2023-04-01T07:36:44;97380.63;;;9.15;80.68
78741;BME280;68062;48.726;9.370;2023-04-01T07:39:26;97382.31;;;9.18;81.15
78741;BME280;68062;48.726;9.370;2023-04-01T07:42:15;97384.06;;;9.16;79.99
78741;BME280;68062;48.726;9.370;2023-04-01T07:44:49;97389.84;;;9.25;81.42
78741;BME280;68062;48.726;9.370;2023-04-01T07:47:28;97390.63;;;9.29;80.60
78741;BME280;68062;48.726;9.370;2023-04-01T07:50:08;97393.19;;;9.29;81.19
78741;BME280;68062;48.726;9.370;2023-04-01T07:52:44;97383.78;;;9.30;79.68
78741;BME280;68062;48.726;9.370;2023-04-01T07:55:26;97388.81;;;9.34;79.65
78741;BME280;68062;48.726;9.370;2023-04-01T07:58:03;97395.69;;;9.34;78.25
78741;BME280;68062;48.726;9.370;2023-04-01T08:00:42;97403.22;;;9.41;79.53
78741;BME280;68062;48.726;9.370;2023-04-01T08:03:31;97369.84;;;9.43;79.66
78741;BME280;68062;48.726;9.370;2023-04-01T08:06:06;97392.88;;;9.46;79.02
78741;BME280;68062;48.726;9.370;2023-04-01T08:08:47;97402.91;;;9.59;79.00
78741;BME280;68062;48.726;9.370;2023-04-01T08:11:33;97389.25;;;9.56;78.72
78741;BME280;68062;48.726;9.370;2023-04-01T08:14:31;97379.56;;;9.71;79.64
78741;BME280;68062;48.726;9.370;2023-04-01T08:17:28;97388.88;;;9.75;79.03
78741;BME280;68062;48.726;9.370;2023-04-01T08:20:10;97361.03;;;9.55;79.11
78741;BME280;68062;48.726;9.370;2023-04-01T08:22:41;97391.22;;;9.86;79.39
78741;BME280;68062;48.726;9.370;2023-04-01T08:25:24;97387.72;;;9.90;79.42
78741;BME280;68062;48.726;9.370;2023-04-01T08:27:58;97385.72;;;9.62;78.86
78741;BME280;68062;48.726;9.370;2023-04-01T08:30:29;97377.38;;;9.52;80.66
78741;BME280;68062;48.726;9.370;2023-04-01T08:33:06;97402.97;;;9.54;80.43
78741;BME280;68062;48.726;9.370;2023-04-01T08:35:38;97389.13;;;9.63;80.95
78741;BME280;68062;48.726;9.370;2023-04-01T08:38:12;97413.94;;;9.62;81.77
78741;BME280;68062;48.726;9.370;2023-04-01T08:44:23;97387.25;;;9.71;80.45
78741;BME280;68062;48.726;9.370;2023-04-01T08:47:06;97399.59;;;9.96;80.73
78741;BME280;68062;48.726;9.370;2023-04-01T08:49:54;97406.09;;;9.70;82.09
78741;BME280;68062;48.726;9.370;2023-04-01T08:52:52;97404.00;;;9.89;82.40
78741;BME280;68062;48.726;9.370;2023-04-01T08:55:31;97398.66;;;9.98;82.30
78741;BME280;68062;48.726;9.370;2023-04-01T08:58:54;97408.28;;;9.46;85.79
78741;BME280;68062;48.726;9.370;2023-04-01T09:01:46;97410.22;;;9.33;89.03
78741;BME280;68062;48.726;9.370;2023-04-01T09:04:52;97410.56;;;9.15;93.22
78741;BME280;68062;48.726;9.370;2023-04-01T09:07:38;97402.72;;;8.72;98.72
78741;BME280;68062;48.726;9.370;2023-04-01T09:10:43;97414.09;;;8.54;98.58
78741;BME280;68062;48.726;9.370;2023-04-01T09:13:51;97422.84;;;8.39;97.27
78741;BME280;68062;48.726;9.370;2023-04-01T09:16:30;97416.94;;;8.32;100.00
78741;BME280;68062;48.726;9.370;2023-04-01T09:19:20;97412.81;;;8.22;98.22
78741;BME280;68062;48.726;9.370;2023-04-01T09:22:12;97418.72;;;8.27;98.64
78741;BME280;68062;48.726;9.370;2023-04-01T09:24:56;97419.56;;;8.29;96.35
78741;BME280;68062;48.726;9.370;2023-04-01T09:27:28;97392.34;;;8.22;99.02
78741;BME280;68062;48.726;9.370;2023-04-01T09:30:31;97409.78;;;8.58;97.80
78741;BME280;68062;48.726;9.370;2023-04-01T09:33:27;97417.31;;;8.68;94.62
78741;BME280;68062;48.726;9.370;2023-04-01T09:36:14;97410.03;;;8.95;93.75
78741;BME280;68062;48.726;9.370;2023-04-01T09:38:55;97414.31;;;8.95;92.89
78741;BME280;68062;48.726;9.370;2023-04-01T09:41:29;97416.75;;;9.03;90.60
78741;BME280;68062;48.726;9.370;2023-04-01T09:44:14;97426.03;;;9.10;87.99
78741;BME280;68062;48.726;9.370;2023-04-01T09:47:19;97425.16;;;9.11;91.06
78741;BME280;68062;48.726;9.370;2023-04-01T09:50:12;97377.81;;;8.80;88.58
78741;BME280;68062;48.726;9.370;2023-04-01T09:52:47;97431.16;;;9.10;87.62
78741;BME280;68062;48.726;9.370;2023-04-01T10:02:33;97441.91;;;8.79;92.08
78741;BME280;68062;48.726;9.370;2023-04-01T10:11:30;97440.25;;;8.76;93.53
78741;BME280;68062;48.726;9.370;2023-04-01T10:14:24;97419.94;;;8.64;94.40
78741;BME280;68062;48.726;9.370;2023-04-01T10:20:25;97425.91;;;8.66;94.92
78741;BME280;68062;48.726;9.370;2023-04-01T10:23:17;97434.22;;;8.80;94.78
78741;BME280;68062;48.726;9.370;2023-04-01T10:26:22;97430.16;;;8.67;95.78
78741;BME280;68062;48.726;9.370;2023-04-01T10:29:27;97448.84;;;8.74;94.63
78741;BME280;68062;48.726;9.370;2023-04-01T10:32:40;97444.44;;;8.82;93.86
78741;BME280;68062;48.726;9.370;2023-04-01T10:35:22;97442.59;;;8.90;95.79
78741;BME280;68062;48.726;9.370;2023-04-01T10:38:28;97428.75;;;9.01;91.02
78741;BME280;68062;48.726;9.370;2023-04-01T10:45:18;97427.28;;;9.34;86.53
78741;BME280;68062;48.726;9.370;2023-04-01T10:48:14;97446.59;;;9.54;85.26
78741;BME280;68062;48.726;9.370;2023-04-01T10:51:10;97436.22;;;9.62;83.20
78741;BME280;68062;48.726;9.370;2023-04-01T10:53:48;97442.56;;;9.42;84.71
78741;BME280;68062;48.726;9.370;2023-04-01T10:56:40;97459.31;;;9.60;82.37
78741;BME280;68062;48.726;9.370;2023-04-01T11:03:36;97395.16;;;9.62;79.09
78741;BME280;68062;48.726;9.370;2023-04-01T11:06:55;97440.88;;;9.86;80.13
78741;BME280;68062;48.726;9.370;2023-04-01T11:09:57;97460.34;;;9.97;80.15
78741;BME280;68062;48.726;9.370;2023-04-01T11:16:12;97439.63;;;10.05;81.97
78741;BME280;68062;48.726;9.370;2023-04-01T11:22:22;97446.47;;;10.06;80.66
78741;BME280;68062;48.726;9.370;2023-04-01T11:28:39;97442.31;;;10.00;78.47
78741;BME280;68062;48.726;9.370;2023-04-01T11:31:35;97447.13;;;10.15;78.90
78741;BME280;68062;48.726;9.370;2023-04-01T11:34:16;97449.13;;;10.43;77.72
78741;BME280;68062;48.726;9.370;2023-04-01T11:36:54;97433.31;;;10.60;76.63
78741;BME280;68062;48.726;9.370;2023-04-01T11:39:33;97452.91;;;10.65;77.79
78741;BME280;68062;48.726;9.370;2023-04-01T11:42:30;97439.66;;;10.45;76.79
78741;BME280;68062;48.726;9.370;2023-04-01T11:45:31;97436.22;;;10.47;77.79
78741;BME280;68062;48.726;9.370;2023-04-01T11:48:16;97455.09;;;10.44;77.37
78741;BME280;68062;48.726;9.370;2023-04-01T11:50:57;97452.75;;;10.33;75.39
78741;BME280;68062;48.726;9.370;2023-04-01T11:53:36;97431.91;;;10.06;77.38
78741;BME280;68062;48.726;9.370;2023-04-01T11:56:16;97396.81;;;10.05;76.30
78741;BME280;68062;48.726;9.370;2023-04-01T11:59:00;97464.47;;;10.47;75.04
78741;BME280;68062;48.726;9.370;2023-04-01T12:01:35;97465.50;;;10.39;76.66
78741;BME280;68062;48.726;9.370;2023-04-01T12:04:31;97464.91;;;10.66;76.21
78741;BME280;68062;48.726;9.370;2023-04-01T12:07:08;97471.53;;;10.74;76.59
78741;BME280;68062;48.726;9.370;2023-04-01T12:09:46;97478.38;;;10.75;75.52
78741;BME280;68062;48.726;9.370;2023-04-01T12:12:23;97473.84;;;10.49;77.49
78741;BME280;68062;48.726;9.370;2023-04-01T12:15:00;97484.28;;;10.41;77.64
78741;BME280;68062;48.726;9.370;2023-04-01T12:17:36;97457.16;;;10.26;77.96
78741;BME280;68062;48.726;9.370;2023-04-01T12:23:13;97452.47;;;10.05;78.33
78741;BME280;68062;48.726;9.370;2023-04-01T12:26:00;97480.28;;;9.84;78.59
78741;BME280;68062;48.726;9.370;2023-04-01T12:28:43;97481.06;;;9.88;79.43
78741;BME280;68062;48.726;9.370;2023-04-01T12:31:22;97479.09;;;10.00;78.80
78741;BME280;68062;48.726;9.370;2023-04-01T12:34:09;97474.78;;;10.02;80.73
78741;BME280;68062;48.726;9.370;2023-04-01T12:36:50;97474.00;;;9.99;79.62
78741;BME280;68062;48.726;9.370;2023-04-01T12:39:36;97476.06;;;9.81;80.88
78741;BME280;68062;48.726;9.370;2023-04-01T12:42:14;97481.03;;;9.89;80.69
78741;BME280;68062;48.726;9.370;2023-04-01T12:44:58;97479.97;;;9.99;79.36
78741;BME280;68062;48.726;9.370;2023-04-01T12:48:04;97466.13;;;10.08;77.41
78741;BME280;68062;48.726;9.370;2023-04-01T12:50:41;97470.25;;;10.14;77.90
78741;BME280;68062;48.726;9.370;2023-04-01T12:53:46;97486.34;;;10.24;76.32
78741;BME280;68062;48.726;9.370;2023-04-01T12:56:26;97476.03;;;10.25;75.32
78741;BME280;68062;48.726;9.370;2023-04-01T12:59:11;97513.25;;;10.87;75.19
78741;BME280;68062;48.726;9.370;2023-04-01T13:02:01;97483.16;;;10.91;75.52
78741;BME280;68062;48.726;9.370;2023-04-01T13:04:51;97481.75;;;11.14;74.09
78741;BME280;68062;48.726;9.370;2023-04-01T13:10:20;97487.53;;;11.24;73.80
78741;BME280;68062;48.726;9.370;2023-04-01T13:13:07;97465.50;;;10.75;73.35
78741;BME280;68062;48.726;9.370;2023-04-01T13:15:43;97476.16;;;10.98;73.65
78741;BME280;68062;48.726;9.370;2023-04-01T13:18:24;97493.56;;;10.86;73.29
78741;BME280;68062;48.726;9.370;2023-04-01T13:21:00;97481.69;;;10.81;73.05
78741;BME280;68062;48.726;9.370;2023-04-01T13:23:34;97497.47;;;10.65;74.73
78741;BME280;68062;48.726;9.370;2023-04-01T13:26:12;97487.09;;;10.68;74.41
78741;BME280;68062;48.726;9.370;2023-04-01T13:28:43;97498.66;;;10.88;73.87
78741;BME280;68062;48.726;9.370;2023-04-01T13:31:24;97491.31;;;10.72;72.60
78741;BME280;68062;48.726;9.370;2023-04-01T13:34:04;97503.00;;;10.48;73.47
78741;BME280;68062;48.726;9.370;2023-04-01T13:36:36;97482.16;;;10.20;74.12
78741;BME280;68062;48.726;9.370;2023-04-01T13:39:17;97524.69;;;10.33;73.19
78741;BME280;68062;48.726;9.370;2023-04-01T13:42:16;97522.06;;;10.36;73.07
78741;BME280;68062;48.726;9.370;2023-04-01T13:44:48;97506.47;;;10.45;73.36
78741;BME280;68062;48.726;9.370;2023-04-01T13:47:43;97515.47;;;10.65;71.68
78741;BME280;68062;48.726;9.370;2023-04-01T13:50:26;97514.63;;;10.65;72.01
78741;BME280;68062;48.726;9.370;2023-04-01T13:53:06;97500.97;;;10.63;73.05
78741;BME280;68062;48.726;9.370;2023-04-01T13:55:49;97511.53;;;10.88;70.63
78741;BME280;68062;48.726;9.370;2023-04-01T13:58:39;97518.69;;;10.73;72.89
78741;BME280;68062;48.726;9.370;2023-04-01T14:01:13;97523.53;;;10.50;72.46
78741;BME280;68062;48.726;9.370;2023-04-01T14:04:10;97503.84;;;10.49;71.97
78741;BME280;68062;48.726;9.370;2023-04-01T14:06:54;97504.72;;;10.48;72.46
78741;BME280;68062;48.726;9.370;2023-04-01T14:09:52;97513.84;;;10.61;73.13
78741;BME280;68062;48.726;9.370;2023-04-01T14:12:31;97508.13;;;10.87;71.42
78741;BME280;68062;48.726;9.370;2023-04-01T14:15:17;97510.34;;;11.01;72.24
78741;BME280;68062;48.726;9.370;2023-04-01T14:17:55;97526.41;;;10.73;73.20
78741;BME280;68062;48.726;9.370;2023-04-01T14:20:32;97503.41;;;10.69;73.53
78741;BME280;68062;48.726;9.370;2023-04-01T14:26:09;97515.84;;;10.86;73.37
78741;BME280;68062;48.726;9.370;2023-04-01T14:28:44;97522.03;;;11.16;73.15
78741;BME280;68062;48.726;9.370;2023-04-01T14:31:36;97524.97;;;11.01;72.84
78741;BME280;68062;48.726;9.370;2023-04-01T14:34:17;97521.00;;;10.86;74.05
78741;BME280;68062;48.726;9.370;2023-04-01T14:36:55;97526.22;;;10.83;73.95
78741;BME280;68062;48.726;9.370;2023-04-01T14:39:49;97528.25;;;10.68;75.52
78741;BME280;68062;48.726;9.370;2023-04-01T14:42:41;97534.13;;;10.73;74.79
78741;BME280;68062;48.726;9.370;2023-04-01T14:48:33;97519.56;;;10.31;74.95
78741;BME280;68062;48.726;9.370;2023-04-01T14:51:10;97531.03;;;10.16;76.04
78741;BME280;68062;48.726;9.370;2023-04-01T14:53:44;97525.94;;;10.13;75.75
78741;BME280;68062;48.726;9.370;2023-04-01T14:56:38;97529.97;;;10.25;76.72
78741;BME280;68062;48.726;9.370;2023-04-01T14:59:14;97540.94;;;10.35;75.81
78741;BME280;68062;48.726;9.370;2023-04-01T15:01:47;97520.44;;;10.30;77.12